weather.gov     
National Weather Service

Terminal Aerodrome Forecast
NWS Homepage
This page is being discontinued on March 12, 2014.
The same data is available at this site. Please update your bookmarks.
Thank you, and we apologize for the inconvenience.
Please send an email to SR-SRH.Webmaster@noaa.gov with any concerns.


Current Version
Previous Version:    01  02  03  04  05  06  07  08  09  10  11  12  13  14  
[Printable]
773
FTUS41 KBOX 182336 CCA
TAFBOS
TAF COR
KBOS 182336Z 1900/2006 11006KT P6SM BKN010 BKN020
     FM190300 12005KT P6SM SCT010 BKN025
     FM190500 18005KT P6SM BKN060
     FM190700 22005KT P6SM SCT090
     FM191300 28009KT P6SM FEW250
     FM191700 31014G23KT P6SM FEW250
     FM200300 35009KT P6SM SKC=


773
FTUS41 KBOX 182336 CCA
TAFBOS
TAF COR
KBOS 182336Z 1900/2006 11006KT P6SM BKN010 BKN020
     FM190300 12005KT P6SM SCT010 BKN025
     FM190500 18005KT P6SM BKN060
     FM190700 22005KT P6SM SCT090
     FM191300 28009KT P6SM FEW250
     FM191700 31014G23KT P6SM FEW250
     FM200300 35009KT P6SM SKC=




U.S. Dept. of Commerce
NOAA National Weather Service
1325 East West Highway
Silver Spring, MD 20910
E-mail: w-nws.webmaster@noaa.gov
Page last modified: May 16, 2007
NATIONAL WEATHER SERVICE: for Safety, for Work, for Fun - FOR LIFE